Ashby, Minnesota
Current Conditions -  °F | °C
As of 6:35 AM on Saturday 25 Oct 2014 (Local Time) from KY63 Reporting Station
Clear Clear  
Wind Chill:   Ceiling: Unl
Heat Index:   Visibility: 10mi
Dew Point:   Wind: 6mph
Humidity: 70%   Direction: 320°NW
Pressure: 30.04"   Gusts: NA
Location:  46.09°N, 95.82°W
Report Text: KY63 251135Z AUTO 32005KT 10SM CLR 06/01 A3004 RMK AO2 T00580007
Loading
Personal Weather Stations






























Interactive Weather Map
Tropical Storm Tracking
New forecast layout! Learn more

10-Day Weather Forecast

Advertisements
Track Severe Weather on mobile